Time;durP1;ratioP1;P1;durP2;ratioP2;P2;SDS_P1;SDS_P2;PMS_P1;PMS_P2;Temp;Humidity;BMP_temperature;BMP_pressure;BME280_temperature;BME280_humidity;BME280_pressure;Samples;Min_cycle;Max_cycle;Signal;HPM_P1;HPM_P2
2021/09/20 00:01:21;;;;;;;5.93;3.63;;;13.50;99.90;;;;;;5014459;28;20456;-51
2021/09/20 00:03:48;;;;;;;3.47;3.00;;;13.40;99.90;;;;;;5013326;28;20480;-51
2021/09/20 00:06:16;;;;;;;3.57;2.90;;;13.40;99.90;;;;;;5014574;28;20466;-51
2021/09/20 00:08:43;;;;;;;5.70;3.37;;;13.40;99.90;;;;;;5014147;28;20432;-51
2021/09/20 00:11:10;;;;;;;4.73;2.60;;;13.30;99.90;;;;;;5014358;28;20448;-50
2021/09/20 00:13:36;;;;;;;3.53;2.57;;;13.40;99.90;;;;;;5014545;28;20436;-51
2021/09/20 00:16:03;;;;;;;3.97;2.80;;;13.20;99.90;;;;;;5014335;28;20765;-51
2021/09/20 00:18:30;;;;;;;2.93;2.50;;;13.40;99.90;;;;;;5012566;28;20526;-51
2021/09/20 00:20:56;;;;;;;6.70;3.00;;;13.40;99.90;;;;;;5014157;28;20825;-51
2021/09/20 00:23:24;;;;;;;3.60;2.40;;;13.40;99.90;;;;;;5014206;28;20479;-52
2021/09/20 00:25:51;;;;;;;6.33;3.23;;;13.40;99.90;;;;;;5014139;28;20790;-51
2021/09/20 00:28:18;;;;;;;4.67;3.10;;;13.40;99.90;;;;;;5013702;28;20998;-50
2021/09/20 00:30:45;;;;;;;3.50;2.73;;;13.40;99.90;;;;;;5013958;28;20461;-52
2021/09/20 00:33:12;;;;;;;4.00;3.23;;;13.40;99.90;;;;;;5013883;28;20438;-51
2021/09/20 00:35:38;;;;;;;3.40;3.03;;;13.60;99.90;;;;;;5013798;28;20991;-51
2021/09/20 00:38:05;;;;;;;4.67;2.80;;;13.30;99.90;;;;;;5013539;28;20935;-51
2021/09/20 00:40:33;;;;;;;5.50;3.00;;;13.40;99.90;;;;;;5013763;28;20547;-51
2021/09/20 00:43:00;;;;;;;5.20;3.13;;;13.40;99.90;;;;;;5013863;28;20433;-51
2021/09/20 00:45:27;;;;;;;4.33;3.00;;;13.40;99.90;;;;;;5013848;28;20969;-51
2021/09/20 00:47:53;;;;;;;4.30;3.03;;;13.40;99.90;;;;;;5013353;28;20437;-52
2021/09/20 00:50:20;;;;;;;3.30;2.90;;;13.40;99.90;;;;;;5028258;22;20499;-47
2021/09/20 00:52:47;;;;;;;6.53;3.33;;;13.40;99.90;;;;;;5013814;28;20791;-47
2021/09/20 00:55:14;;;;;;;3.77;3.03;;;13.60;99.90;;;;;;5013661;28;20447;-47
2021/09/20 00:57:45;;;;;;;4.60;3.07;;;13.30;99.90;;;;;;5013207;28;20440;-48
2021/09/20 01:00:12;;;;;;;7.93;2.83;;;13.40;99.90;;;;;;5013462;28;20469;-47
2021/09/20 01:02:39;;;;;;;9.07;3.20;;;13.30;99.90;;;;;;5013502;28;20431;-47
2021/09/20 01:05:08;;;;;;;5.60;3.50;;;13.30;99.90;;;;;;5013563;28;20493;-47
2021/09/20 01:07:34;;;;;;;6.27;3.20;;;13.30;99.90;;;;;;5013339;28;20847;-47
2021/09/20 01:10:01;;;;;;;9.27;3.70;;;13.40;99.90;;;;;;5013316;28;20740;-48
2021/09/20 01:12:29;;;;;;;3.60;3.30;;;13.30;99.90;;;;;;5013687;28;20436;-47
2021/09/20 01:14:57;;;;;;;4.17;3.00;;;13.40;99.90;;;;;;5013429;28;20806;-48
2021/09/20 01:17:24;;;;;;;5.50;3.20;;;13.40;99.90;;;;;;5013257;28;20450;-47
2021/09/20 01:19:51;;;;;;;4.07;3.10;;;13.10;99.90;;;;;;5012606;28;20439;-48
2021/09/20 01:22:19;;;;;;;5.20;3.33;;;13.40;99.90;;;;;;5013205;28;20940;-48
2021/09/20 01:24:48;;;;;;;5.03;3.30;;;12.90;99.90;;;;;;5013247;28;20479;-47
2021/09/20 01:27:20;;;;;;;3.37;2.53;;;13.30;99.90;;;;;;5013167;28;20440;-47
2021/09/20 01:29:48;;;;;;;5.63;3.73;;;13.20;99.90;;;;;;5012689;28;20439;-47
2021/09/20 01:32:15;;;;;;;5.30;3.90;;;13.30;99.90;;;;;;5013114;28;20436;-47
2021/09/20 01:34:42;;;;;;;5.70;3.33;;;13.20;99.90;;;;;;5013004;28;20431;-47
2021/09/20 01:37:09;;;;;;;5.90;3.60;;;13.20;99.90;;;;;;5013019;28;20508;-47
2021/09/20 01:39:37;;;;;;;3.77;3.00;;;13.40;99.90;;;;;;5011105;28;20447;-48
2021/09/20 01:42:06;;;;;;;3.40;2.87;;;13.30;99.90;;;;;;5012859;28;20451;-48
2021/09/20 01:44:33;;;;;;;3.30;3.00;;;12.80;99.90;;;;;;5012747;28;20840;-47
2021/09/20 01:47:00;;;;;;;4.37;3.50;;;13.20;99.90;;;;;;5012736;28;20444;-48
2021/09/20 01:49:28;;;;;;;4.90;3.10;;;13.20;99.90;;;;;;5012633;28;20924;-47
2021/09/20 01:51:55;;;;;;;5.03;3.00;;;13.20;99.90;;;;;;5012700;28;20466;-48
2021/09/20 01:54:23;;;;;;;6.50;3.37;;;13.20;99.90;;;;;;5012644;28;20440;-48
2021/09/20 01:56:49;;;;;;;5.60;3.53;;;13.20;99.90;;;;;;5012584;28;20431;-47
2021/09/20 01:59:17;;;;;;;9.23;3.53;;;13.20;99.90;;;;;;5012390;28;20434;-48
2021/09/20 02:01:44;;;;;;;4.60;2.83;;;13.20;99.90;;;;;;5013652;28;20487;-49
2021/09/20 02:04:11;;;;;;;6.37;3.40;;;13.20;99.90;;;;;;5012457;28;20969;-48
2021/09/20 02:06:38;;;;;;;5.37;3.77;;;13.20;99.90;;;;;;5012573;28;20463;-47
2021/09/20 02:09:06;;;;;;;5.20;3.13;;;13.30;99.90;;;;;;5010717;28;20455;-49
2021/09/20 02:11:34;;;;;;;5.40;3.77;;;13.40;99.90;;;;;;5012420;28;20478;-48
2021/09/20 02:14:00;;;;;;;3.70;3.37;;;13.20;99.90;;;;;;5012321;28;20541;-48
2021/09/20 02:16:28;;;;;;;7.47;3.63;;;13.20;99.90;;;;;;5012356;28;20426;-48
2021/09/20 02:18:55;;;;;;;5.10;3.30;;;13.40;99.90;;;;;;5011376;28;20432;-47
2021/09/20 02:21:21;;;;;;;4.73;3.80;;;13.20;99.90;;;;;;5012140;28;20533;-48
2021/09/20 02:23:48;;;;;;;4.40;3.83;;;13.00;99.90;;;;;;5012121;28;20745;-47
2021/09/20 02:26:15;;;;;;;9.00;3.97;;;13.10;99.90;;;;;;5012254;28;20484;-48
2021/09/20 02:28:41;;;;;;;6.67;3.87;;;13.10;99.90;;;;;;5011582;28;20816;-47
2021/09/20 02:31:09;;;;;;;7.20;3.60;;;13.20;99.90;;;;;;5012129;28;20469;-48
2021/09/20 02:33:38;;;;;;;5.77;3.90;;;13.00;99.90;;;;;;5010798;28;20986;-48
2021/09/20 02:36:08;;;;;;;4.93;3.17;;;13.00;99.90;;;;;;5010778;28;20995;-47
2021/09/20 02:38:35;;;;;;;4.10;3.60;;;13.10;99.90;;;;;;5011786;28;20442;-47
2021/09/20 02:41:05;;;;;;;6.97;4.37;;;13.10;99.90;;;;;;5012181;28;20459;-47
2021/09/20 02:43:32;;;;;;;4.70;4.00;;;13.00;99.90;;;;;;5011937;28;20436;-47
2021/09/20 02:45:59;;;;;;;7.90;4.00;;;12.90;99.90;;;;;;5011892;28;20490;-47
2021/09/20 02:48:25;;;;;;;6.37;3.77;;;12.70;99.90;;;;;;5011947;28;20793;-47
2021/09/20 02:50:53;;;;;;;4.80;3.00;;;13.00;99.90;;;;;;5011747;28;20576;-47
2021/09/20 02:53:20;;;;;;;5.40;3.53;;;13.00;99.90;;;;;;5011955;28;20438;-47
2021/09/20 02:55:47;;;;;;;7.07;4.10;;;13.10;99.90;;;;;;5011816;28;20446;-47
2021/09/20 02:58:14;;;;;;;3.30;3.00;;;12.90;99.90;;;;;;5011357;28;20926;-47
2021/09/20 03:00:40;;;;;;;6.77;3.43;;;13.00;99.90;;;;;;5011722;28;20462;-47
2021/09/20 03:03:07;;;;;;;4.67;3.27;;;12.90;99.90;;;;;;5011832;28;20855;-47
2021/09/20 03:05:35;;;;;;;7.13;3.33;;;13.00;99.90;;;;;;5011711;28;20550;-47
2021/09/20 03:08:04;;;;;;;8.30;3.73;;;13.00;99.90;;;;;;5011384;28;20491;-47
2021/09/20 03:10:32;;;;;;;5.40;3.90;;;13.00;99.90;;;;;;5011261;28;20441;-47
2021/09/20 03:12:59;;;;;;;6.43;3.93;;;13.00;99.90;;;;;;5010992;28;20439;-48
2021/09/20 03:15:25;;;;;;;7.80;4.03;;;13.00;99.90;;;;;;5010994;28;20434;-47
2021/09/20 03:17:52;;;;;;;4.83;3.63;;;13.10;99.90;;;;;;5010528;28;20438;-48
2021/09/20 03:20:19;;;;;;;5.17;3.60;;;13.00;99.90;;;;;;5012305;28;20483;-48
2021/09/20 03:22:45;;;;;;;5.83;4.20;;;13.00;99.90;;;;;;5011450;28;20527;-47
2021/09/20 03:25:14;;;;;;;4.30;3.40;;;13.00;99.90;;;;;;5011484;28;20819;-47
2021/09/20 03:27:41;;;;;;;5.73;4.10;;;13.10;99.90;;;;;;5011248;28;20484;-47
2021/09/20 03:30:09;;;;;;;9.37;4.23;;;13.40;99.90;;;;;;5011567;28;20464;-47
2021/09/20 03:32:37;;;;;;;6.63;3.80;;;13.10;99.90;;;;;;5014687;28;20531;-47
2021/09/20 03:35:04;;;;;;;4.23;3.40;;;13.00;99.90;;;;;;5015223;28;20443;-47
2021/09/20 03:37:31;;;;;;;7.00;3.83;;;13.40;99.90;;;;;;5015031;28;20810;-47
2021/09/20 03:39:58;;;;;;;8.13;4.00;;;13.00;99.90;;;;;;5015239;28;20495;-47
2021/09/20 03:42:26;;;;;;;6.80;4.07;;;13.00;99.90;;;;;;5015163;28;20430;-47
2021/09/20 03:44:53;;;;;;;5.73;3.70;;;12.80;99.90;;;;;;5015193;28;20475;-47
2021/09/20 03:47:19;;;;;;;6.00;3.30;;;12.90;99.90;;;;;;5015408;28;20538;-48
2021/09/20 03:49:46;;;;;;;6.80;3.83;;;12.40;99.90;;;;;;5014602;28;20818;-47
2021/09/20 03:52:13;;;;;;;4.87;3.50;;;13.40;99.90;;;;;;5014702;28;20448;-49
2021/09/20 03:54:39;;;;;;;8.90;3.63;;;12.80;99.90;;;;;;5014743;28;20431;-47
2021/09/20 03:57:06;;;;;;;7.40;4.00;;;12.80;99.90;;;;;;5014585;28;20483;-47
2021/09/20 03:59:34;;;;;;;6.03;4.00;;;12.60;99.90;;;;;;5014401;28;20446;-48
2021/09/20 04:02:00;;;;;;;5.73;3.53;;;12.90;99.90;;;;;;5014613;28;20459;-47
2021/09/20 04:04:27;;;;;;;6.93;3.90;;;12.50;99.90;;;;;;5014523;28;20488;-48
2021/09/20 04:06:53;;;;;;;4.17;3.40;;;12.70;99.90;;;;;;5014504;28;20442;-47
2021/09/20 04:09:21;;;;;;;4.10;3.30;;;12.90;99.90;;;;;;5012609;28;20466;-47
2021/09/20 04:11:48;;;;;;;8.10;4.53;;;12.50;99.90;;;;;;5014088;28;20552;-48
2021/09/20 04:14:14;;;;;;;8.43;3.57;;;12.80;99.90;;;;;;5014755;28;20444;-48
2021/09/20 04:16:42;;;;;;;6.40;4.40;;;12.40;99.90;;;;;;5014605;28;20486;-48
2021/09/20 04:19:09;;;;;;;5.00;3.63;;;12.80;99.90;;;;;;5013606;28;20442;-48
2021/09/20 04:21:35;;;;;;;6.80;4.00;;;12.80;99.90;;;;;;5013914;28;20468;-48
2021/09/20 04:24:02;;;;;;;5.03;3.53;;;12.80;99.90;;;;;;5014004;28;20450;-48
2021/09/20 04:26:29;;;;;;;4.20;3.80;;;12.80;99.90;;;;;;5014035;28;20487;-48
2021/09/20 04:28:55;;;;;;;8.20;4.23;;;12.80;99.90;;;;;;5014085;28;20428;-49
2021/09/20 04:31:22;;;;;;;5.87;4.10;;;12.80;99.90;;;;;;5014333;28;20456;-48
2021/09/20 04:33:50;;;;;;;4.30;3.70;;;12.70;99.90;;;;;;5014084;28;20442;-48
2021/09/20 04:36:16;;;;;;;7.57;3.70;;;12.80;99.90;;;;;;5014480;28;20442;-47
2021/09/20 04:38:43;;;;;;;4.87;3.37;;;12.50;99.90;;;;;;5014196;28;20501;-47
2021/09/20 04:41:09;;;;;;;7.93;4.50;;;13.10;99.90;;;;;;5013985;28;20524;-47
2021/09/20 04:43:36;;;;;;;5.67;4.30;;;12.70;99.90;;;;;;5013233;28;20454;-48
2021/09/20 04:46:03;;;;;;;7.10;3.30;;;12.60;99.90;;;;;;5013700;28;20489;-47
2021/09/20 04:48:29;;;;;;;4.60;4.20;;;12.90;99.90;;;;;;5013795;28;20447;-49
2021/09/20 04:50:58;;;;;;;14.00;4.00;;;12.90;99.90;;;;;;5013288;28;20992;-47
2021/09/20 04:53:24;;;;;;;5.33;3.83;;;12.90;99.90;;;;;;5013753;28;20440;-48
2021/09/20 04:55:51;;;;;;;5.90;3.37;;;12.90;99.90;;;;;;5013394;28;20805;-47
2021/09/20 04:58:18;;;;;;;5.63;4.00;;;12.90;99.90;;;;;;5012897;28;20469;-49
2021/09/20 05:00:45;;;;;;;5.83;3.80;;;12.90;99.90;;;;;;5013263;28;20466;-48
2021/09/20 05:03:11;;;;;;;5.87;4.07;;;12.90;99.90;;;;;;5013547;28;20439;-48
2021/09/20 05:05:38;;;;;;;5.10;3.70;;;12.90;99.90;;;;;;5013330;28;20481;-48
2021/09/20 05:08:06;;;;;;;8.97;4.63;;;12.90;99.90;;;;;;5013277;28;20531;-50
2021/09/20 05:10:33;;;;;;;5.87;4.30;;;12.70;99.90;;;;;;5013219;28;20466;-48
2021/09/20 05:12:59;;;;;;;6.93;4.00;;;13.10;99.90;;;;;;5013192;28;20435;-48
2021/09/20 05:15:26;;;;;;;10.10;4.30;;;12.70;99.90;;;;;;5012985;28;20957;-48
2021/09/20 05:17:53;;;;;;;4.90;3.67;;;13.10;99.90;;;;;;5012877;28;20763;-49
2021/09/20 05:20:22;;;;;;;7.30;4.80;;;13.00;99.90;;;;;;5012736;28;20460;-48
2021/09/20 05:22:49;;;;;;;8.97;5.00;;;13.00;99.90;;;;;;5012930;28;20441;-47
2021/09/20 05:25:17;;;;;;;7.83;3.73;;;13.00;99.90;;;;;;5012632;28;20475;-47
2021/09/20 05:27:44;;;;;;;16.17;5.10;;;13.10;99.90;;;;;;5012171;28;20429;-50
2021/09/20 05:30:12;;;;;;;6.40;3.63;;;13.30;99.90;;;;;;5012757;28;20979;-48
2021/09/20 05:32:39;;;;;;;5.00;3.80;;;13.10;99.90;;;;;;5012260;28;20481;-48
2021/09/20 05:35:06;;;;;;;7.87;4.40;;;13.10;99.90;;;;;;5012800;28;20472;-49
2021/09/20 05:37:34;;;;;;;5.97;3.80;;;13.30;99.90;;;;;;5012840;28;20432;-49
2021/09/20 05:40:01;;;;;;;8.23;4.83;;;13.10;99.90;;;;;;5011926;28;20557;-49
2021/09/20 05:42:29;;;;;;;7.60;4.87;;;13.20;99.90;;;;;;5012081;28;20435;-49
2021/09/20 05:44:56;;;;;;;8.60;4.30;;;13.30;99.90;;;;;;5012017;28;20478;-49
2021/09/20 05:47:22;;;;;;;5.57;4.43;;;13.40;99.90;;;;;;5012181;28;20863;-49
2021/09/20 05:49:49;;;;;;;7.20;3.73;;;13.00;99.90;;;;;;5010435;28;20556;-50
2021/09/20 05:52:16;;;;;;;7.37;3.63;;;13.00;99.90;;;;;;5012416;28;20534;-48
2021/09/20 05:54:43;;;;;;;9.83;5.67;;;13.20;99.90;;;;;;5013267;28;20443;-48
2021/09/20 05:57:10;;;;;;;6.03;4.10;;;13.20;99.90;;;;;;5014049;28;20440;-49
2021/09/20 05:59:38;;;;;;;8.10;5.73;;;12.80;99.90;;;;;;5011696;28;20897;-48
2021/09/20 06:02:05;;;;;;;8.63;4.07;;;13.30;99.90;;;;;;5012286;28;20506;-48
2021/09/20 06:04:32;;;;;;;6.57;3.77;;;13.30;99.90;;;;;;5012328;28;20972;-48
2021/09/20 06:06:58;;;;;;;5.30;3.90;;;13.40;99.90;;;;;;5012102;28;20482;-48
2021/09/20 06:09:35;;;;;;;7.57;3.73;;;13.20;99.90;;;;;;5011298;28;20435;-48
2021/09/20 06:12:03;;;;;;;4.63;3.57;;;13.40;99.90;;;;;;5012187;28;20465;-48
2021/09/20 06:14:29;;;;;;;6.57;3.67;;;13.30;99.90;;;;;;5011581;28;20439;-47
2021/09/20 06:16:57;;;;;;;6.03;3.80;;;13.30;99.90;;;;;;5011570;28;20443;-51
2021/09/20 06:19:24;;;;;;;8.23;3.70;;;13.40;99.90;;;;;;5011606;28;20789;-50
2021/09/20 06:21:51;;;;;;;9.33;4.83;;;13.40;99.90;;;;;;5012095;28;20824;-50
2021/09/20 06:24:18;;;;;;;7.60;4.00;;;13.40;99.90;;;;;;5011725;28;20432;-51
2021/09/20 06:26:45;;;;;;;5.67;4.27;;;13.20;99.90;;;;;;5011592;28;20505;-51
2021/09/20 06:29:12;;;;;;;9.10;5.90;;;13.10;99.90;;;;;;5011591;28;20466;-50
2021/09/20 06:31:39;;;;;;;4.60;3.90;;;13.50;99.90;;;;;;5011709;28;20454;-50
2021/09/20 06:34:07;;;;;;;7.80;4.67;;;13.70;99.90;;;;;;5011343;28;20451;-52
2021/09/20 06:36:34;;;;;;;8.50;4.40;;;13.60;99.90;;;;;;5012051;28;20436;-51
2021/09/20 06:39:01;;;;;;;12.27;4.60;;;13.80;99.90;;;;;;5011219;28;20435;-50
2021/09/20 06:41:27;;;;;;;6.37;3.73;;;13.70;99.90;;;;;;5012216;28;20553;-50
2021/09/20 06:43:54;;;;;;;6.00;4.20;;;13.70;99.90;;;;;;5011400;28;20443;-50
2021/09/20 06:46:21;;;;;;;5.77;4.17;;;13.80;99.90;;;;;;5011448;28;20498;-50
2021/09/20 06:48:47;;;;;;;11.00;3.87;;;13.80;99.90;;;;;;5011184;28;20435;-50
2021/09/20 06:51:15;;;;;;;7.07;3.40;;;13.90;99.90;;;;;;5034512;22;20566;-52
2021/09/20 06:53:42;;;;;;;7.23;4.50;;;13.90;99.90;;;;;;5011000;28;20449;-52
2021/09/20 06:56:09;;;;;;;8.13;3.80;;;14.00;99.90;;;;;;5011457;28;20463;-51
2021/09/20 06:58:36;;;;;;;5.90;3.50;;;14.30;99.90;;;;;;5010699;28;20948;-52
2021/09/20 07:01:02;;;;;;;8.30;4.30;;;14.10;99.90;;;;;;5011028;28;20525;-51
2021/09/20 07:03:29;;;;;;;6.73;4.17;;;14.40;99.90;;;;;;5010836;28;20432;-51
2021/09/20 07:05:56;;;;;;;5.50;4.10;;;14.30;99.90;;;;;;5012975;28;20487;-51
2021/09/20 07:08:24;;;;;;;6.13;3.50;;;14.60;99.90;;;;;;5014770;28;20523;-51
2021/09/20 07:10:50;;;;;;;7.47;4.10;;;14.60;99.90;;;;;;5014563;28;21047;-52
2021/09/20 07:13:17;;;;;;;4.90;3.83;;;14.40;99.90;;;;;;5014754;28;20901;-52
2021/09/20 07:15:44;;;;;;;6.20;4.00;;;14.40;99.90;;;;;;5015141;28;20449;-51
2021/09/20 07:18:10;;;;;;;5.00;3.80;;;14.50;99.90;;;;;;5014441;28;20958;-52
2021/09/20 07:20:37;;;;;;;6.73;3.87;;;14.40;99.90;;;;;;5014789;28;20464;-52
2021/09/20 07:23:04;;;;;;;3.73;3.27;;;14.60;99.90;;;;;;5015138;28;20463;-52
2021/09/20 07:25:32;;;;;;;8.10;5.10;;;14.50;99.90;;;;;;5014451;28;20486;-51
2021/09/20 07:27:59;;;;;;;7.37;4.13;;;14.60;99.90;;;;;;5014440;28;20433;-52
2021/09/20 07:30:25;;;;;;;4.73;3.70;;;14.70;99.90;;;;;;5014393;28;20912;-52
2021/09/20 07:32:53;;;;;;;8.80;4.03;;;14.70;99.90;;;;;;5014344;28;20433;-51
2021/09/20 07:35:21;;;;;;;6.20;3.90;;;14.70;99.90;;;;;;5013974;28;20588;-51
2021/09/20 07:37:50;;;;;;;5.10;4.17;;;14.80;99.90;;;;;;5013819;28;20453;-52
2021/09/20 07:40:17;;;;;;;5.33;3.57;;;14.90;99.90;;;;;;5014298;28;20599;-52
2021/09/20 07:42:46;;;;;;;6.37;3.17;;;14.90;99.90;;;;;;5013896;28;20435;-52
2021/09/20 07:45:14;;;;;;;7.03;3.93;;;15.00;99.90;;;;;;5014510;28;20474;-52
2021/09/20 07:47:41;;;;;;;30.53;7.80;;;15.10;99.90;;;;;;5013784;28;20436;-51
2021/09/20 07:50:08;;;;;;;9.57;4.30;;;15.10;99.90;;;;;;5014048;28;20476;-52
2021/09/20 07:52:35;;;;;;;5.53;3.80;;;15.10;99.90;;;;;;5013045;28;20452;-52
2021/09/20 07:55:04;;;;;;;5.03;3.87;;;15.30;99.90;;;;;;5014854;28;20481;-51
2021/09/20 07:57:32;;;;;;;4.20;3.80;;;15.20;99.90;;;;;;5013944;28;20944;-51
2021/09/20 08:00:00;;;;;;;8.30;4.13;;;15.20;99.90;;;;;;5013666;28;20436;-52
2021/09/20 08:02:26;;;;;;;3.90;3.50;;;15.10;99.90;;;;;;5014444;28;20450;-51
2021/09/20 08:04:53;;;;;;;5.73;3.43;;;15.30;99.90;;;;;;5014534;28;20443;-52
2021/09/20 08:07:20;;;;;;;6.13;3.50;;;15.10;99.90;;;;;;5013704;28;20480;-52
2021/09/20 08:09:46;;;;;;;6.03;3.47;;;15.40;99.90;;;;;;5013697;28;20925;-51
2021/09/20 08:12:13;;;;;;;7.60;2.97;;;15.40;99.90;;;;;;5013981;28;20465;-52
2021/09/20 08:14:41;;;;;;;7.60;3.57;;;15.40;99.90;;;;;;5014028;28;20441;-52
2021/09/20 08:17:09;;;;;;;7.93;4.07;;;15.40;99.90;;;;;;5013121;28;20432;-51
2021/09/20 08:19:36;;;;;;;5.90;3.30;;;15.40;99.90;;;;;;5013643;28;20428;-52
2021/09/20 08:22:03;;;;;;;5.77;4.10;;;15.50;99.90;;;;;;5013766;28;20977;-52
2021/09/20 08:24:30;;;;;;;7.23;3.40;;;15.50;99.90;;;;;;5014057;28;20955;-52
2021/09/20 08:26:57;;;;;;;4.80;2.93;;;15.60;99.90;;;;;;5014142;28;20590;-52
2021/09/20 08:29:24;;;;;;;8.23;3.47;;;15.60;99.90;;;;;;5013197;28;20436;-52
2021/09/20 08:31:51;;;;;;;5.57;3.10;;;15.60;99.90;;;;;;5013827;28;20465;-52
2021/09/20 08:34:18;;;;;;;5.60;3.87;;;15.60;99.90;;;;;;5013562;28;20489;-52
2021/09/20 08:36:45;;;;;;;12.10;4.00;;;15.70;99.90;;;;;;5013427;28;20429;-51
2021/09/20 08:39:12;;;;;;;7.10;3.87;;;15.70;99.90;;;;;;5013943;28;20428;-52
2021/09/20 08:41:41;;;;;;;4.87;3.90;;;15.80;99.90;;;;;;5013545;28;20488;-52
2021/09/20 08:44:09;;;;;;;4.73;3.53;;;15.90;99.90;;;;;;5017261;28;20547;-52
2021/09/20 08:46:38;;;;;;;4.90;3.27;;;16.00;99.90;;;;;;5013638;28;20519;-52
2021/09/20 08:49:06;;;;;;;6.20;3.77;;;16.10;99.90;;;;;;5013034;28;20802;-52
2021/09/20 08:51:34;;;;;;;6.03;2.93;;;16.10;99.40;;;;;;5012901;28;20468;-52
2021/09/20 08:54:01;;;;;;;3.97;3.50;;;16.20;99.00;;;;;;5013333;28;20428;-52
2021/09/20 08:56:28;;;;;;;11.27;3.43;;;16.20;98.90;;;;;;5013262;28;20527;-52
2021/09/20 08:58:54;;;;;;;8.80;4.10;;;16.20;98.50;;;;;;5011258;28;20967;-53
2021/09/20 09:01:21;;;;;;;4.40;3.27;;;16.20;98.40;;;;;;5011292;28;21032;-52
2021/09/20 09:03:48;;;;;;;4.43;2.70;;;16.20;98.10;;;;;;5013047;28;20433;-51
2021/09/20 09:06:28;;;;;;;5.10;3.00;;;16.20;97.30;;;;;;5012883;28;20483;-52
2021/09/20 09:08:56;;;;;;;7.00;3.53;;;16.30;96.40;;;;;;5012208;28;20898;-52
2021/09/20 09:11:23;;;;;;;7.07;2.83;;;16.00;96.40;;;;;;5012882;28;20471;-52
2021/09/20 09:13:50;;;;;;;6.20;4.00;;;16.20;96.90;;;;;;5012682;28;20610;-53
2021/09/20 09:16:19;;;;;;;3.80;3.37;;;16.20;96.60;;;;;;5012805;28;20813;-51
2021/09/20 09:19:00;;;;;;;5.20;4.43;;;16.20;96.40;;;;;;5012397;28;20524;-51
2021/09/20 09:21:30;;;;;;;6.80;3.70;;;16.20;96.50;;;;;;5012648;28;20460;-52
2021/09/20 09:24:03;;;;;;;6.33;3.17;;;16.30;96.30;;;;;;5012895;28;20510;-52
2021/09/20 09:26:30;;;;;;;4.50;3.00;;;16.40;96.70;;;;;;5012337;28;20481;-52
2021/09/20 09:29:08;;;;;;;5.93;4.00;;;16.40;96.50;;;;;;5012122;28;20578;-51
2021/09/20 09:31:36;;;;;;;6.30;3.80;;;16.60;96.40;;;;;;5011698;28;20449;-52
2021/09/20 09:34:15;;;;;;;3.77;2.90;;;16.60;96.20;;;;;;5010918;28;20450;-53
2021/09/20 09:36:42;;;;;;;6.63;3.03;;;16.50;95.80;;;;;;5012187;28;20944;-52
2021/09/20 09:39:11;;;;;;;7.03;3.90;;;16.50;95.90;;;;;;5012054;28;20448;-53
2021/09/20 09:41:39;;;;;;;3.60;3.27;;;17.10;96.20;;;;;;5012090;28;20461;-53
2021/09/20 09:44:08;;;;;;;5.13;3.20;;;16.70;95.70;;;;;;5012043;28;20510;-52
2021/09/20 09:46:39;;;;;;;4.50;3.17;;;16.80;95.60;;;;;;5012502;28;20481;-53
2021/09/20 09:49:12;;;;;;;4.70;3.70;;;16.90;95.40;;;;;;5011366;28;20449;-52
2021/09/20 09:52:04;;;;;;;5.80;3.17;;;17.00;95.20;;;;;;5011531;28;20481;-53
2021/09/20 09:54:34;;;;;;;6.67;3.10;;;17.10;95.10;;;;;;5011862;28;20437;-52
2021/09/20 09:57:12;;;;;;;8.57;3.80;;;17.00;95.10;;;;;;5012786;28;20426;-52
2021/09/20 09:59:39;;;;;;;5.87;3.07;;;16.90;95.20;;;;;;5011797;28;20552;-53
2021/09/20 10:02:22;;;;;;;4.27;3.23;;;16.90;95.10;;;;;;5012005;28;20541;-52
2021/09/20 10:04:56;;;;;;;4.60;3.30;;;16.90;94.90;;;;;;5011953;28;20475;-53
2021/09/20 10:07:26;;;;;;;4.83;3.07;;;16.80;94.90;;;;;;5012607;28;20487;-52
2021/09/20 10:09:55;;;;;;;5.83;3.20;;;16.80;94.90;;;;;;5011385;28;20438;-53
2021/09/20 10:12:26;;;;;;;4.80;3.30;;;16.90;95.00;;;;;;5011649;28;20551;-52
2021/09/20 10:14:56;;;;;;;6.50;3.10;;;16.90;95.00;;;;;;5011978;28;20429;-52
2021/09/20 10:17:23;;;;;;;6.37;3.63;;;16.90;95.30;;;;;;5011683;28;20433;-52
2021/09/20 10:19:50;;;;;;;6.23;3.83;;;16.90;95.40;;;;;;5011188;28;20447;-52
2021/09/20 10:22:18;;;;;;;5.07;4.13;;;16.90;95.50;;;;;;5011382;28;20559;-52
2021/09/20 10:24:47;;;;;;;6.00;3.67;;;16.80;95.40;;;;;;5011814;28;20442;-52
2021/09/20 10:27:18;;;;;;;7.50;3.27;;;16.80;95.50;;;;;;5011991;28;20491;-52
2021/09/20 10:29:49;;;;;;;3.57;3.20;;;16.80;95.60;;;;;;5011258;28;20432;-52
2021/09/20 10:32:17;;;;;;;3.87;3.20;;;16.70;95.70;;;;;;5011596;28;20805;-52
2021/09/20 10:34:43;;;;;;;4.33;3.47;;;16.70;95.70;;;;;;5011262;28;20451;-52
2021/09/20 10:37:12;;;;;;;7.53;3.40;;;16.70;95.60;;;;;;5011508;28;20441;-52
2021/09/20 10:39:52;;;;;;;4.23;3.20;;;16.70;95.60;;;;;;5010714;28;20562;-52
2021/09/20 10:43:00;;;;;;;6.30;3.10;;;16.70;95.60;;;;;;5011348;28;20514;-52
2021/09/20 10:45:46;;;;;;;4.50;3.20;;;16.60;95.60;;;;;;5011383;28;20750;-52
2021/09/20 10:48:28;;;;;;;5.53;3.37;;;16.60;95.70;;;;;;5010581;28;20983;-52
2021/09/20 10:50:59;;;;;;;4.77;3.87;;;16.60;95.80;;;;;;5011340;28;20792;-52
2021/09/20 10:53:33;;;;;;;5.27;3.37;;;16.60;95.80;;;;;;5011253;28;20524;-52
2021/09/20 10:56:17;;;;;;;3.70;2.80;;;16.60;95.90;;;;;;5010836;28;20440;-52
2021/09/20 10:59:15;;;;;;;5.00;3.60;;;16.70;95.80;;;;;;5011239;28;20444;-52
2021/09/20 11:01:44;;;;;;;4.60;3.63;;;16.70;95.60;;;;;;5010868;28;20448;-52
2021/09/20 11:04:15;;;;;;;7.00;4.77;;;16.70;95.60;;;;;;5011991;28;20435;-53
2021/09/20 11:06:43;;;;;;;4.40;3.40;;;16.70;95.60;;;;;;5011280;28;20872;-52
2021/09/20 11:09:30;;;;;;;5.73;3.37;;;16.80;95.60;;;;;;5010673;28;20490;-52
2021/09/20 11:12:05;;;;;;;4.80;3.53;;;16.80;95.70;;;;;;5010918;28;20474;-52
2021/09/20 11:14:44;;;;;;;8.43;2.93;;;16.80;95.60;;;;;;5011325;28;20427;-52
2021/09/20 11:17:26;;;;;;;5.77;3.07;;;16.80;95.60;;;;;;5011392;28;20923;-52
2021/09/20 11:19:55;;;;;;;4.70;3.60;;;16.90;95.40;;;;;;5010999;28;20433;-53
2021/09/20 11:22:26;;;;;;;6.47;4.03;;;16.90;95.40;;;;;;5010606;28;20491;-52
2021/09/20 11:24:54;;;;;;;3.67;3.10;;;16.90;95.50;;;;;;5010896;28;20952;-52
2021/09/20 11:27:28;;;;;;;4.77;3.10;;;16.90;95.40;;;;;;5011291;28;20495;-52
2021/09/20 11:29:58;;;;;;;6.23;4.03;;;17.00;95.40;;;;;;5012665;28;20931;-53
2021/09/20 11:32:25;;;;;;;5.33;3.60;;;17.10;95.40;;;;;;5011006;28;20896;-52
2021/09/20 11:34:54;;;;;;;7.10;3.47;;;17.10;95.10;;;;;;5011201;28;20525;-52
2021/09/20 11:37:24;;;;;;;13.10;4.03;;;17.20;94.90;;;;;;5010990;28;20810;-52
2021/09/20 11:39:53;;;;;;;4.33;3.30;;;17.30;94.70;;;;;;5010435;28;20433;-52
2021/09/20 11:42:22;;;;;;;4.57;3.40;;;17.30;94.50;;;;;;5010322;28;20453;-52
2021/09/20 11:44:51;;;;;;;3.40;3.10;;;17.40;94.30;;;;;;5010850;28;20434;-52
2021/09/20 11:47:22;;;;;;;5.93;3.70;;;17.40;94.30;;;;;;5010214;28;20480;-52
2021/09/20 11:49:51;;;;;;;4.40;3.07;;;17.50;94.20;;;;;;5010466;28;20433;-52
2021/09/20 11:52:31;;;;;;;4.53;3.63;;;17.60;94.10;;;;;;5011303;28;20501;-52
2021/09/20 11:54:58;;;;;;;5.33;3.67;;;17.70;94.00;;;;;;5013915;28;20441;-52
2021/09/20 11:57:27;;;;;;;5.07;3.53;;;17.70;93.90;;;;;;5013448;28;20434;-53
2021/09/20 11:59:58;;;;;;;4.20;3.10;;;17.80;93.80;;;;;;5013459;28;20433;-52
2021/09/20 12:02:32;;;;;;;6.90;3.30;;;17.90;93.50;;;;;;5013972;28;20450;-53
2021/09/20 12:04:59;;;;;;;12.57;3.90;;;17.90;93.30;;;;;;5014110;28;20432;-52
2021/09/20 12:07:30;;;;;;;7.37;4.07;;;18.00;93.30;;;;;;5012194;28;20478;-53
2021/09/20 12:09:58;;;;;;;7.33;4.40;;;18.10;93.20;;;;;;5013412;28;20444;-53
2021/09/20 12:12:30;;;;;;;5.57;4.00;;;18.10;93.10;;;;;;5013040;28;20951;-53
2021/09/20 12:14:59;;;;;;;4.80;3.50;;;18.20;92.90;;;;;;5013661;28;20888;-52
2021/09/20 12:17:43;;;;;;;3.20;2.90;;;18.30;92.60;;;;;;5012450;28;20490;-52
2021/09/20 12:20:11;;;;;;;6.50;3.97;;;18.40;92.20;;;;;;5013573;28;20832;-52
2021/09/20 12:22:39;;;;;;;5.37;3.97;;;18.40;91.80;;;;;;5013604;28;20458;-53
2021/09/20 12:25:27;;;;;;;6.67;4.27;;;18.50;91.60;;;;;;5013412;28;20432;-53
2021/09/20 12:27:55;;;;;;;3.90;3.40;;;18.60;91.00;;;;;;5013525;28;20583;-53
2021/09/20 12:30:25;;;;;;;3.50;3.20;;;18.60;91.20;;;;;;5013884;28;20489;-52
2021/09/20 12:33:11;;;;;;;4.53;3.33;;;18.50;91.00;;;;;;5013704;28;20447;-52
2021/09/20 12:35:38;;;;;;;5.00;3.33;;;18.50;90.60;;;;;;5013778;28;20435;-52
2021/09/20 12:38:15;;;;;;;4.63;3.20;;;18.40;90.60;;;;;;5013264;28;20794;-51
2021/09/20 12:40:42;;;;;;;4.00;3.07;;;18.40;90.40;;;;;;5013514;28;20450;-52
2021/09/20 12:43:10;;;;;;;8.33;3.43;;;18.40;90.30;;;;;;5013387;28;20927;-52
2021/09/20 12:45:38;;;;;;;4.03;3.27;;;18.30;90.40;;;;;;5013381;28;20435;-52
2021/09/20 12:48:07;;;;;;;5.00;3.70;;;18.20;90.50;;;;;;5012933;28;20483;-52
2021/09/20 12:50:42;;;;;;;8.10;4.60;;;18.20;90.50;;;;;;5036052;22;20856;-51
2021/09/20 12:53:09;;;;;;;5.70;3.73;;;18.20;90.60;;;;;;5014534;28;20443;-51